Terminal Aerodrome Forecast
Issued by NWS Charleston, WV

Current Version | Previous Version | Text Only | Print | Product List | Glossary Off
Versions: 1 2 3 4 5 6 7 8 9 10 11 12 13 14 15 16 17 18 19 20 21 22 23 24 25 26

000
FTUS41 KRLX 190100 AAA
TAFHTS
TAF AMD
KHTS 190158Z 1902/1924 VRB03KT 5SM BR BKN035
     FM190400 23003KT 3SM BR SCT001
     FM190600 00000KT 1SM BR BKN001
      TEMPO 1906/1908 1/2SM FG
     FM190800 00000KT 1/2SM FG BKN001
     FM191300 VRB03KT 1SM BR BKN010
     FM191400 VRB03KT 5SM HZ SCT020
     FM191700 23005KT 6SM HZ BKN035
     FM192300 VRB03KT P6SM SCT035 BKN080=

USA.gov is the U.S. government's official web portal to all federal, state and local government web resources and services.